New Haven, CT (06512)

9:58 AM EDT on October 22, 2014 (GMT -0400)
Beacon Hill/Lake Saltonstall - Branford | Change Station
CLOSE
Current Station
Personal Weather Station
Location: Branford, CT
Elevation: 20 ft
Nearby Weather Stations

Elev 20 ft 41.28 °N, 72.86 °W | Updated 11 seconds ago

Mostly Cloudy
Mostly Cloudy
53.6 °F
Feels Like 53.6 °F
N
2.0
Wind Variable Wind from NNE
Gusts 12.0 mph

Today
High -- | Low -- °F
--% Chance of Precip.
Yesterday
High -- | Low -- °F
Precip. -- in
7:11 AM 6:00 PM
Waning Crescent, 2% visible
Pressure 29.94 in
Visibility 10.0 miles
Clouds Mostly Cloudy 1600 ft
Mostly Cloudy 11000 ft
Dew Point 51 °F
Humidity 91%
Rainfall 0.00 in
Snow Depth Not available.
UV 1 out of 12
Pollen .10 out of 12
Ozone Good
PM2.5 Good
Flu Activity Sporadic
METAR KHVN 221353Z 01018G22KT 10SM BKN016 BKN110 13/09 A2994 RMK AO2 SLP138 T01330094

More Conditions Fewer Conditions

Pressure 29.94 in
Visibility 10.0 miles
Clouds Mostly Cloudy 1600 ft
Mostly Cloudy 11000 ft
Dew Point 51 °F
Humidity 91%
Rainfall 0.00 in
Snow Depth Not available.
UV 1 out of 12
Pollen .10 out of 12
Ozone Good
PM2.5 Good
Flu Activity Sporadic
METAR KHVN 221353Z 01018G22KT 10SM BKN016 BKN110 13/09 A2994 RMK AO2 SLP138 T01330094

More Conditions Fewer Conditions

10-Day Weather Forecast

Almanac

Astronomy

Oct. 22, 2014 Rise Set
Actual Time 7:11 AM EDT 6:00 PM EDT
Civil Twilight 6:42 AM EDT 6:28 PM EDT
Nautical Twilight 6:10 AM EDT 7:00 PM EDT
Astronomical Twilight 5:38 AM EDT 7:32 PM EDT
Moon 5:48 AM EDT 5:25 PM EDT
Length of Visible Light 11h 45m
Length of Day
10h 49m
Tomorrow will be 2m 35s shorter.
Waning Crescent, 2% of the Moon is Illuminated
Today
Waning Crescent
Oct 23
New
Oct 30
First Quarter
Nov 6
Full
Nov 14
Last Quarter

Today's Extremes

State Highs State Lows

Community

WunderPhotos

Upload Photos

1,763,919 photos uploaded!

Nearby

Air Quality

  Air Quality AQ Index Pollutant
Yesterday Good
PM10
Yesterday Good
OZONE
Current Good
PM2.5
Current Good
OZONE
Wednesday Good
PM2.5
Thursday Good
PM2.5

Snow Depth

Station Depth Elevation
No new snow has been reported.

Earthquake Activity

City Distance Mag. Time & Date
No recent earthquake activity has been reported nearby.
Minimum magnitude displayed is 2.5.

Coastal Water Temperatures

Place Temperature
New London, CT 64.0 °F
Newport, RI 62.1 °F
Quonset Point, RI 61.0 °F
Conimicut Light, RI 61.0 °F
Providence, RI 62.1 °F

Nearby Weather Stations